Time;durP1;ratioP1;P1;durP2;ratioP2;P2;SDS_P1;SDS_P2;PMS_P1;PMS_P2;Temp;Humidity;BMP_temperature;BMP_pressure;BME280_temperature;BME280_humidity;BME280_pressure;Samples;Min_cycle;Max_cycle;Signal;HPM_P1;HPM_P2
2022/07/19 00:00:19;;;;;;;22.85;15.02;;;;;;;22.68;56.29;101701.41;4994719;28;20026;-60
2022/07/19 00:02:44;;;;;;;21.70;14.25;;;;;;;22.64;56.53;101699.69;4994696;28;20379;-61
2022/07/19 00:05:12;;;;;;;21.52;13.98;;;;;;;22.53;57.13;101705.91;4995053;28;20482;-60
2022/07/19 00:07:37;;;;;;;23.65;14.98;;;;;;;22.49;56.92;101692.91;4994838;28;20031;-60
2022/07/19 00:10:05;;;;;;;23.75;14.52;;;;;;;22.40;57.38;101690.28;4994959;28;20025;-61
2022/07/19 00:12:30;;;;;;;21.33;14.70;;;;;;;22.40;57.42;101688.31;4994943;28;20121;-61
2022/07/19 00:14:56;;;;;;;22.20;14.93;;;;;;;22.34;57.22;101688.91;4994432;28;20364;-61
2022/07/19 00:17:21;;;;;;;34.33;14.43;;;;;;;22.36;56.29;101698.63;4994320;28;20044;-61
2022/07/19 00:19:47;;;;;;;21.65;13.68;;;;;;;22.35;55.95;101690.56;4994370;28;20075;-61
2022/07/19 00:22:12;;;;;;;23.23;14.63;;;;;;;22.27;57.14;101686.75;4994288;28;20030;-61
2022/07/19 00:24:38;;;;;;;21.75;14.30;;;;;;;22.25;57.36;101689.09;4994453;28;20065;-61
2022/07/19 00:27:03;;;;;;;21.92;14.43;;;;;;;22.24;57.23;101684.69;4994465;28;20030;-61
2022/07/19 00:29:28;;;;;;;22.35;14.05;;;;;;;22.22;57.22;101696.31;4994240;28;20033;-61
2022/07/19 00:31:54;;;;;;;22.88;14.70;;;;;;;22.10;58.22;101685.16;4994499;28;20034;-61
2022/07/19 00:34:19;;;;;;;20.65;14.35;;;;;;;22.04;57.11;101678.16;4994271;28;20467;-61
2022/07/19 00:36:44;;;;;;;21.38;13.98;;;;;;;21.99;57.39;101684.88;4993951;28;20026;-61
2022/07/19 00:39:10;;;;;;;21.55;14.65;;;;;;;21.94;58.04;101674.72;4993995;28;20029;-61
2022/07/19 00:41:42;;;;;;;21.73;14.38;;;;;;;21.90;57.84;101676.63;4993757;28;20160;-61
2022/07/19 00:44:08;;;;;;;26.42;15.32;;;;;;;21.86;58.19;101681.34;4993971;28;20042;-61
2022/07/19 00:46:34;;;;;;;23.42;15.18;;;;;;;21.78;58.05;101669.06;4994223;28;20438;-60
2022/07/19 00:48:59;;;;;;;22.38;15.15;;;;;;;21.77;57.43;101675.88;4994158;28;20054;-60
2022/07/19 00:51:25;;;;;;;23.10;15.15;;;;;;;21.74;58.23;101675.78;4994232;28;20030;-60
2022/07/19 00:53:52;;;;;;;23.40;15.23;;;;;;;21.72;58.33;101678.19;4993902;28;20030;-60
2022/07/19 00:56:18;;;;;;;22.80;15.07;;;;;;;21.70;57.95;101672.09;4993770;28;20049;-61
2022/07/19 00:58:44;;;;;;;22.63;15.45;;;;;;;21.66;57.69;101670.00;4993646;28;20042;-60
2022/07/19 01:01:10;;;;;;;23.60;14.93;;;;;;;21.65;57.94;101668.34;4993766;28;20031;-60
2022/07/19 01:03:38;;;;;;;23.88;15.60;;;;;;;21.61;57.59;101675.91;4993530;28;20053;-60
2022/07/19 01:06:04;;;;;;;21.58;14.98;;;;;;;21.58;57.54;101671.00;4993853;28;20058;-60
2022/07/19 01:08:29;;;;;;;22.15;15.00;;;;;;;21.52;57.76;101669.59;4993499;28;20130;-61
2022/07/19 01:10:55;;;;;;;21.77;14.70;;;;;;;21.48;57.43;101666.69;4993461;28;20094;-60
2022/07/19 01:13:20;;;;;;;20.90;15.20;;;;;;;21.46;57.56;101666.22;4993742;28;20038;-60
2022/07/19 01:15:45;;;;;;;23.00;14.93;;;;;;;21.41;57.84;101668.50;4993268;28;20391;-60
2022/07/19 01:18:11;;;;;;;22.60;15.13;;;;;;;21.39;57.47;101670.84;4993166;28;20070;-60
2022/07/19 01:20:36;;;;;;;21.48;14.80;;;;;;;21.39;57.04;101668.88;4993639;28;20355;-58
2022/07/19 01:23:02;;;;;;;27.05;15.30;;;;;;;21.38;57.35;101667.22;4993133;28;20034;-59
2022/07/19 01:25:32;;;;;;;22.58;14.40;;;;;;;21.39;57.26;101668.03;4993307;28;20451;-60
2022/07/19 01:27:58;;;;;;;22.52;14.52;;;;;;;21.29;57.43;101669.38;4993209;28;20482;-60
2022/07/19 01:30:25;;;;;;;23.90;14.63;;;;;;;21.27;57.01;101674.56;4993438;28;20106;-59
2022/07/19 01:32:51;;;;;;;23.23;14.07;;;;;;;21.18;58.07;101672.72;4993021;28;20027;-60
2022/07/19 01:35:17;;;;;;;26.23;15.13;;;;;;;21.06;58.64;101669.94;4992843;28;20026;-59
2022/07/19 01:37:43;;;;;;;22.58;14.48;;;;;;;21.02;58.79;101671.84;4993163;28;20038;-59
2022/07/19 01:40:10;;;;;;;22.80;14.30;;;;;;;20.94;59.57;101675.63;4992706;28;20031;-59
2022/07/19 01:42:36;;;;;;;23.38;14.55;;;;;;;20.91;59.72;101674.34;4992523;28;20080;-59
2022/07/19 01:45:03;;;;;;;22.42;14.38;;;;;;;20.85;60.59;101675.78;4992785;28;20034;-59
2022/07/19 01:47:28;;;;;;;23.17;14.65;;;;;;;20.77;61.13;101671.13;4993156;28;20030;-59
2022/07/19 01:49:53;;;;;;;22.38;14.82;;;;;;;20.76;61.06;101672.31;4992672;28;20033;-59
2022/07/19 01:52:19;;;;;;;21.80;14.40;;;;;;;20.67;61.36;101670.44;4992655;28;20113;-59
2022/07/19 01:54:44;;;;;;;24.40;15.10;;;;;;;20.64;61.12;101668.31;4992445;28;20022;-59
2022/07/19 01:57:09;;;;;;;23.83;15.35;;;;;;;20.65;60.78;101664.34;4992493;28;20026;-58
2022/07/19 01:59:39;;;;;;;21.52;15.00;;;;;;;20.63;60.90;101669.50;4992499;28;20356;-59
2022/07/19 02:02:05;;;;;;;21.75;14.98;;;;;;;20.60;60.66;101678.63;4992347;28;20116;-60
2022/07/19 02:04:31;;;;;;;22.30;15.25;;;;;;;20.63;60.88;101668.69;4992773;28;20141;-61
2022/07/19 02:06:56;;;;;;;23.45;14.80;;;;;;;20.65;60.88;101658.72;4992221;28;20034;-59
2022/07/19 02:09:22;;;;;;;22.63;14.75;;;;;;;20.65;60.75;101655.91;4992145;28;20547;-60
2022/07/19 02:11:47;;;;;;;22.73;14.85;;;;;;;20.60;60.57;101660.94;4991576;28;20182;-60
2022/07/19 02:14:12;;;;;;;22.50;15.07;;;;;;;20.64;59.53;101661.88;4992337;28;20049;-59
2022/07/19 02:16:38;;;;;;;21.73;14.77;;;;;;;20.57;61.32;101660.47;4992447;28;20041;-60
2022/07/19 02:19:07;;;;;;;21.85;15.23;;;;;;;20.42;61.88;101655.59;4992385;28;20132;-60
2022/07/19 02:21:34;;;;;;;23.98;16.25;;;;;;;20.37;61.61;101665.09;4992128;28;20034;-59
2022/07/19 02:23:59;;;;;;;23.02;16.25;;;;;;;20.31;61.34;101662.88;4991903;28;20034;-60
2022/07/19 02:26:25;;;;;;;22.73;15.93;;;;;;;20.25;62.14;101657.53;4991898;28;20038;-59
2022/07/19 02:28:50;;;;;;;23.80;15.60;;;;;;;20.24;61.85;101655.03;4992140;28;20049;-59
2022/07/19 02:31:15;;;;;;;25.50;16.65;;;;;;;20.22;61.20;101651.75;4974203;28;20428;-59
2022/07/19 02:33:41;;;;;;;23.63;16.38;;;;;;;20.20;62.71;101652.13;4991941;28;20033;-59
2022/07/19 02:36:06;;;;;;;22.42;15.93;;;;;;;20.14;63.29;101650.75;4991723;28;20022;-60
2022/07/19 02:38:32;;;;;;;21.58;15.32;;;;;;;20.09;63.20;101643.38;4992134;28;20031;-60
2022/07/19 02:40:57;;;;;;;23.42;16.73;;;;;;;20.06;63.69;101646.06;4991325;28;20407;-60
2022/07/19 02:43:23;;;;;;;23.17;15.93;;;;;;;19.98;64.10;101644.19;4991839;28;20101;-60
2022/07/19 02:45:48;;;;;;;22.73;16.05;;;;;;;20.00;62.90;101641.84;4991806;28;20078;-60
2022/07/19 02:48:13;;;;;;;23.63;15.68;;;;;;;19.98;63.79;101647.81;4992038;28;20034;-60
2022/07/19 02:50:39;;;;;;;23.65;15.88;;;;;;;19.98;63.23;101639.38;4991676;28;20509;-59
2022/07/19 02:53:05;;;;;;;22.40;15.82;;;;;;;19.96;64.36;101641.72;4991534;28;20041;-60
2022/07/19 02:55:31;;;;;;;23.15;16.77;;;;;;;19.94;64.28;101644.91;4991595;28;20546;-59
2022/07/19 02:57:56;;;;;;;23.23;16.25;;;;;;;19.92;63.59;101641.63;4991635;28;20022;-60
2022/07/19 03:00:21;;;;;;;21.92;15.88;;;;;;;19.88;65.21;101642.66;4991763;28;20068;-60
2022/07/19 03:02:47;;;;;;;24.10;17.20;;;;;;;19.78;65.38;101635.50;4991832;28;20383;-59
2022/07/19 03:05:12;;;;;;;25.08;17.00;;;;;;;19.76;65.10;101643.47;4991707;28;20399;-60
2022/07/19 03:07:37;;;;;;;23.13;16.50;;;;;;;19.70;63.86;101639.22;4991896;28;20058;-59
2022/07/19 03:10:04;;;;;;;24.42;16.65;;;;;;;19.66;63.89;101632.69;4991219;28;20026;-60
2022/07/19 03:12:29;;;;;;;22.92;17.00;;;;;;;19.66;64.59;101633.50;4991124;28;20453;-61
2022/07/19 03:14:54;;;;;;;24.42;17.02;;;;;;;19.67;64.18;101628.72;4990934;28;20022;-60
2022/07/19 03:17:20;;;;;;;24.13;17.10;;;;;;;19.66;63.30;101627.88;4990985;28;20049;-60
2022/07/19 03:19:46;;;;;;;24.98;17.40;;;;;;;19.62;64.39;101630.56;4991572;28;20043;-61
2022/07/19 03:22:12;;;;;;;25.23;17.23;;;;;;;19.61;64.35;101626.13;4992578;28;20033;-60
2022/07/19 03:24:37;;;;;;;30.00;18.60;;;;;;;19.52;65.30;101624.59;4995225;28;20459;-60
2022/07/19 03:27:02;;;;;;;27.55;18.15;;;;;;;19.51;65.29;101628.56;4995343;28;20049;-62
2022/07/19 03:29:28;;;;;;;25.73;17.38;;;;;;;19.48;64.77;101616.88;4995012;28;20080;-60
2022/07/19 03:31:53;;;;;;;26.52;18.88;;;;;;;19.52;63.50;101619.00;4995148;28;20131;-60
2022/07/19 03:34:18;;;;;;;25.63;18.25;;;;;;;19.54;62.72;101622.28;4995584;28;20355;-61
2022/07/19 03:36:44;;;;;;;25.10;18.63;;;;;;;19.47;64.27;101617.22;4977131;28;20081;-60
2022/07/19 03:39:09;;;;;;;25.90;18.83;;;;;;;19.41;64.67;101619.44;4994784;28;20101;-60
2022/07/19 03:41:34;;;;;;;23.90;18.88;;;;;;;19.40;64.83;101625.41;4994524;28;20477;-60
2022/07/19 03:44:00;;;;;;;25.27;19.73;;;;;;;19.31;64.40;101625.50;4994958;28;20460;-60
2022/07/19 03:46:26;;;;;;;26.60;20.15;;;;;;;19.29;64.69;101623.06;4994559;28;20035;-61
2022/07/19 03:48:51;;;;;;;25.08;18.50;;;;;;;19.27;63.80;101619.75;4994705;28;20085;-60
2022/07/19 03:51:16;;;;;;;25.38;19.42;;;;;;;19.29;63.56;101625.03;4994631;28;20081;-60
2022/07/19 03:53:42;;;;;;;29.25;21.20;;;;;;;19.24;64.59;101620.44;4994847;28;20281;-59
2022/07/19 03:56:07;;;;;;;25.52;18.75;;;;;;;19.28;63.69;101621.41;4994571;28;20101;-60
2022/07/19 03:58:33;;;;;;;25.73;20.85;;;;;;;19.27;63.47;101622.56;4994568;28;20030;-60
2022/07/19 04:00:58;;;;;;;25.85;20.25;;;;;;;19.32;63.84;101627.13;4994705;28;20026;-60
2022/07/19 04:03:23;;;;;;;26.42;20.67;;;;;;;19.28;65.09;101629.81;4994594;28;20398;-61
2022/07/19 04:05:48;;;;;;;24.92;20.58;;;;;;;19.32;65.00;101633.56;4994461;28;20041;-60
2022/07/19 04:08:14;;;;;;;28.70;21.02;;;;;;;19.32;64.48;101639.16;4994506;28;20026;-60
2022/07/19 04:10:40;;;;;;;27.67;20.40;;;;;;;19.35;62.95;101628.44;4994239;28;20114;-59
2022/07/19 04:13:06;;;;;;;24.38;19.95;;;;;;;19.39;63.31;101632.19;4994296;28;20037;-59
2022/07/19 04:15:31;;;;;;;27.45;20.73;;;;;;;19.40;63.81;101633.81;4994265;28;20062;-58
2022/07/19 04:17:56;;;;;;;27.35;20.73;;;;;;;19.40;62.94;101637.44;4994139;28;20402;-59
2022/07/19 04:20:22;;;;;;;24.00;20.13;;;;;;;19.44;62.65;101632.78;4994509;28;20088;-59
2022/07/19 04:22:47;;;;;;;24.60;19.77;;;;;;;19.48;62.52;101630.09;4993913;28;20050;-59
2022/07/19 04:25:12;;;;;;;27.73;20.08;;;;;;;19.53;63.27;101627.06;4993881;28;20034;-60
2022/07/19 04:27:38;;;;;;;26.50;20.92;;;;;;;19.55;62.85;101635.13;4993912;28;20026;-61
2022/07/19 04:30:04;;;;;;;25.05;20.30;;;;;;;19.56;63.37;101631.97;4993622;28;20030;-60
2022/07/19 04:32:30;;;;;;;28.45;21.58;;;;;;;19.53;63.99;101640.28;4993854;28;20022;-61
2022/07/19 04:34:56;;;;;;;28.63;21.30;;;;;;;19.56;63.05;101631.13;4993828;28;20023;-60
2022/07/19 04:37:22;;;;;;;26.77;21.02;;;;;;;19.58;63.09;101624.03;4993909;28;20038;-60
2022/07/19 04:39:47;;;;;;;27.90;21.67;;;;;;;19.62;63.22;101632.56;4993722;28;20027;-60
2022/07/19 04:42:13;;;;;;;27.60;21.98;;;;;;;19.69;62.37;101627.19;4993964;28;20049;-60
2022/07/19 04:44:38;;;;;;;30.17;22.33;;;;;;;19.74;62.53;101631.75;4994005;28;20474;-60
2022/07/19 04:47:03;;;;;;;28.25;21.95;;;;;;;19.77;62.27;101626.25;4993844;28;20479;-60
2022/07/19 04:49:28;;;;;;;29.30;20.55;;;;;;;19.88;61.79;101628.63;4993797;28;20030;-60
2022/07/19 04:51:54;;;;;;;26.80;21.40;;;;;;;19.91;61.84;101628.75;4993953;28;20034;-60
2022/07/19 04:54:19;;;;;;;27.02;22.00;;;;;;;19.99;61.92;101629.81;4994136;28;20052;-61
2022/07/19 04:56:45;;;;;;;30.35;23.05;;;;;;;20.05;61.67;101630.38;4994193;28;20027;-61
2022/07/19 04:59:10;;;;;;;26.20;22.02;;;;;;;20.11;61.50;101628.97;4993820;28;20117;-61
2022/07/19 05:01:35;;;;;;;25.95;22.10;;;;;;;20.23;61.59;101630.94;4993106;28;20030;-60
2022/07/19 05:04:00;;;;;;;27.30;22.55;;;;;;;20.29;60.76;101628.69;4993560;28;20138;-59
2022/07/19 05:06:26;;;;;;;28.55;22.92;;;;;;;20.37;60.37;101625.75;4993216;28;20034;-60
2022/07/19 05:08:52;;;;;;;29.58;24.17;;;;;;;20.38;60.52;101630.22;4993655;28;20023;-59
2022/07/19 05:11:19;;;;;;;30.85;24.05;;;;;;;20.44;60.83;101622.34;4993854;28;20057;-59
2022/07/19 05:13:44;;;;;;;28.50;23.67;;;;;;;20.50;60.28;101617.31;4993448;28;20056;-59
2022/07/19 05:16:09;;;;;;;29.88;23.90;;;;;;;20.61;59.77;101626.06;4993078;28;20054;-60
2022/07/19 05:18:35;;;;;;;28.92;24.25;;;;;;;20.66;59.86;101621.00;4992817;28;20078;-60
2022/07/19 05:21:00;;;;;;;29.63;25.10;;;;;;;20.71;59.59;101622.75;4993138;28;20054;-58
2022/07/19 05:23:25;;;;;;;29.50;24.65;;;;;;;20.80;59.53;101620.63;4993142;28;20026;-59
2022/07/19 05:25:50;;;;;;;31.77;25.00;;;;;;;20.88;59.41;101621.63;4993218;28;20035;-59
2022/07/19 05:28:16;;;;;;;28.83;23.98;;;;;;;20.94;59.09;101628.66;4992943;28;20022;-58
2022/07/19 05:30:43;;;;;;;31.10;24.60;;;;;;;21.02;58.98;101632.47;4992785;28;20038;-59
2022/07/19 05:33:08;;;;;;;28.65;24.67;;;;;;;21.09;58.88;101629.88;4993101;28;20045;-59
2022/07/19 05:35:34;;;;;;;29.58;25.88;;;;;;;21.20;58.60;101632.97;4992936;28;20356;-59
2022/07/19 05:37:59;;;;;;;29.25;25.38;;;;;;;21.28;58.46;101622.72;4992589;28;20463;-59
2022/07/19 05:40:24;;;;;;;30.05;25.10;;;;;;;21.32;58.14;101623.63;4993015;28;20026;-59
2022/07/19 05:42:49;;;;;;;28.88;25.50;;;;;;;21.40;58.05;101622.63;4992904;28;20030;-59
2022/07/19 05:45:15;;;;;;;27.83;24.67;;;;;;;21.54;58.07;101629.81;4992331;28;20031;-60
2022/07/19 05:47:40;;;;;;;29.23;25.70;;;;;;;21.61;57.88;101625.22;4992502;28;20030;-60
2022/07/19 05:50:06;;;;;;;32.20;25.17;;;;;;;21.68;57.79;101623.75;4992851;28;20382;-60
2022/07/19 05:52:31;;;;;;;31.05;25.73;;;;;;;21.75;57.22;101630.41;4975046;28;20367;-61
2022/07/19 05:54:57;;;;;;;31.15;25.85;;;;;;;21.80;57.41;101634.94;4992298;28;20022;-60
2022/07/19 05:57:22;;;;;;;33.45;28.77;;;;;;;21.81;57.73;101628.94;4974318;28;20332;-60
2022/07/19 05:59:47;;;;;;;30.85;26.85;;;;;;;21.90;57.50;101627.91;4991491;28;20081;-60
2022/07/19 06:02:14;;;;;;;29.08;25.35;;;;;;;22.01;57.06;101631.81;4992679;28;20033;-58
2022/07/19 06:04:40;;;;;;;31.90;27.77;;;;;;;22.05;57.08;101635.53;4992651;28;20023;-58
2022/07/19 06:07:05;;;;;;;32.78;27.58;;;;;;;22.07;57.16;101633.16;4992771;28;20022;-58
2022/07/19 06:09:31;;;;;;;29.67;25.77;;;;;;;22.18;57.32;101629.78;4992510;28;20027;-58
2022/07/19 06:11:56;;;;;;;33.67;27.33;;;;;;;22.33;57.36;101637.38;4992355;28;20192;-59
2022/07/19 06:14:21;;;;;;;32.05;27.85;;;;;;;22.47;56.93;101634.09;4991147;28;20027;-59
2022/07/19 06:16:47;;;;;;;31.52;26.33;;;;;;;22.61;56.17;101630.78;4991282;28;20037;-59
2022/07/19 06:19:12;;;;;;;32.92;25.58;;;;;;;22.75;56.06;101631.06;4989904;28;20491;-59
2022/07/19 06:21:38;;;;;;;30.58;25.75;;;;;;;22.89;55.37;101633.34;4991790;28;20030;-59
2022/07/19 06:24:04;;;;;;;27.27;24.02;;;;;;;22.98;54.64;101635.94;4991911;28;20054;-60
2022/07/19 06:26:29;;;;;;;30.88;24.05;;;;;;;23.12;54.97;101641.06;4991571;28;20084;-59
2022/07/19 06:28:55;;;;;;;29.08;22.83;;;;;;;23.28;54.78;101643.81;5007198;28;20471;-59
2022/07/19 06:31:21;;;;;;;30.70;21.95;;;;;;;23.34;53.54;101639.47;5011524;28;20354;-59
2022/07/19 06:33:48;;;;;;;28.42;21.23;;;;;;;23.44;53.93;101638.03;5011856;28;20057;-59
2022/07/19 06:36:14;;;;;;;28.60;21.10;;;;;;;23.48;53.10;101640.91;5011156;28;20078;-60
2022/07/19 06:38:39;;;;;;;27.40;20.90;;;;;;;23.54;53.55;101639.41;5010624;28;20026;-59
2022/07/19 06:41:05;;;;;;;28.00;19.85;;;;;;;23.67;53.92;101640.84;5010716;28;20453;-60
2022/07/19 06:43:30;;;;;;;28.42;20.30;;;;;;;23.77;53.34;101635.75;5010272;28;20418;-60
2022/07/19 06:45:56;;;;;;;28.90;20.27;;;;;;;23.82;53.77;101635.44;5011467;28;20018;-60
2022/07/19 06:48:21;;;;;;;28.45;20.45;;;;;;;23.91;52.84;101641.63;5010689;28;20112;-59
2022/07/19 06:50:46;;;;;;;28.02;21.00;;;;;;;23.98;52.16;101636.13;4993082;28;20136;-59
2022/07/19 06:53:12;;;;;;;27.23;22.35;;;;;;;23.99;51.91;101636.97;5010566;28;20044;-59
2022/07/19 06:55:37;;;;;;;28.65;22.20;;;;;;;24.03;51.77;101634.19;5010529;28;20025;-60
2022/07/19 06:58:03;;;;;;;27.98;22.15;;;;;;;24.13;51.80;101633.53;5013533;28;20473;-59
2022/07/19 07:00:28;;;;;;;27.23;22.00;;;;;;;24.25;52.23;101629.66;5014814;28;20455;-59
2022/07/19 07:02:53;;;;;;;28.92;21.65;;;;;;;24.36;51.50;101626.97;5013594;28;20065;-59
2022/07/19 07:05:19;;;;;;;28.30;22.20;;;;;;;24.38;51.04;101631.03;5014636;28;20030;-59
2022/07/19 07:07:44;;;;;;;30.60;22.35;;;;;;;24.51;50.86;101627.97;5014548;28;20512;-59
2022/07/19 07:10:10;;;;;;;29.02;20.35;;;;;;;24.59;50.86;101626.88;4996503;28;20034;-58
2022/07/19 07:12:36;;;;;;;28.20;20.83;;;;;;;24.65;50.76;101633.00;5014344;28;20037;-57
2022/07/19 07:15:02;;;;;;;27.42;20.38;;;;;;;24.73;50.41;101631.91;5013828;28;20041;-60
2022/07/19 07:17:27;;;;;;;28.38;20.55;;;;;;;24.81;49.45;101622.31;5015127;28;20144;-60
2022/07/19 07:19:52;;;;;;;29.65;21.17;;;;;;;24.88;48.63;101621.59;5014635;28;20474;-60
2022/07/19 07:22:18;;;;;;;27.40;20.30;;;;;;;24.96;49.70;101622.50;5014216;28;20034;-61
2022/07/19 07:24:43;;;;;;;29.52;21.02;;;;;;;25.04;49.18;101625.00;5013816;28;20030;-60
2022/07/19 07:27:09;;;;;;;27.17;21.00;;;;;;;25.18;49.36;101621.50;5014504;28;20101;-60
2022/07/19 07:29:34;;;;;;;27.00;19.10;;;;;;;25.34;49.86;101621.25;5014934;28;20033;-60
2022/07/19 07:31:59;;;;;;;26.35;19.23;;;;;;;25.51;48.91;101619.84;5013682;28;20137;-59
2022/07/19 07:34:25;;;;;;;27.08;19.08;;;;;;;25.63;48.50;101617.91;5013968;28;20404;-61
2022/07/19 07:36:50;;;;;;;26.88;18.98;;;;;;;25.78;48.83;101621.69;5014409;28;20034;-59
2022/07/19 07:39:16;;;;;;;28.30;18.52;;;;;;;25.89;48.59;101610.41;5014079;28;20026;-60
2022/07/19 07:41:41;;;;;;;29.05;19.05;;;;;;;25.96;48.61;101608.44;5013878;28;20040;-59
2022/07/19 07:44:07;;;;;;;25.75;17.73;;;;;;;26.13;48.49;101609.78;4996248;28;20026;-60
2022/07/19 07:46:32;;;;;;;27.42;19.15;;;;;;;26.24;47.55;101614.69;5014449;28;20074;-59
2022/07/19 07:48:57;;;;;;;27.00;19.30;;;;;;;26.34;47.32;101605.44;5014474;28;20026;-59
2022/07/19 07:51:23;;;;;;;29.67;19.63;;;;;;;26.39;47.03;101607.09;4996329;28;20067;-60
2022/07/19 07:53:49;;;;;;;27.92;19.02;;;;;;;26.50;46.72;101596.59;5013119;28;20531;-59
2022/07/19 07:56:14;;;;;;;24.23;17.05;;;;;;;26.62;46.53;101603.94;5013651;28;20041;-59
2022/07/19 07:58:39;;;;;;;26.67;18.92;;;;;;;26.72;46.31;101597.50;5013769;28;20069;-60
2022/07/19 08:01:05;;;;;;;24.65;17.77;;;;;;;26.87;45.88;101603.25;5013681;28;20026;-59
2022/07/19 08:03:30;;;;;;;26.60;18.48;;;;;;;26.91;45.67;101592.72;5012320;28;20060;-59
2022/07/19 08:05:57;;;;;;;26.38;18.50;;;;;;;26.99;45.91;101610.56;5014988;28;20030;-61
2022/07/19 08:08:26;;;;;;;25.92;17.48;;;;;;;27.09;46.52;101593.56;5011704;28;20030;-59
2022/07/19 08:10:52;;;;;;;27.27;18.83;;;;;;;27.20;45.71;101589.91;4994584;28;20068;-60
2022/07/19 08:13:18;;;;;;;26.27;18.27;;;;;;;27.33;45.79;101585.47;5012019;28;20033;-60
2022/07/19 08:15:43;;;;;;;26.35;18.30;;;;;;;27.45;45.88;101589.97;5013755;28;20034;-60
2022/07/19 08:18:08;;;;;;;26.92;18.27;;;;;;;27.59;45.42;101588.31;5013501;28;20042;-60
2022/07/19 08:20:34;;;;;;;26.08;17.17;;;;;;;27.66;46.40;101589.16;5013912;28;20041;-60
2022/07/19 08:22:59;;;;;;;25.27;17.30;;;;;;;27.79;45.19;101598.06;5013882;28;20135;-60
2022/07/19 08:25:24;;;;;;;25.15;16.98;;;;;;;27.82;44.91;101594.41;5013868;28;20033;-60
2022/07/19 08:27:50;;;;;;;24.48;16.73;;;;;;;27.89;44.43;101593.59;5013914;28;20033;-60
2022/07/19 08:30:15;;;;;;;23.48;15.82;;;;;;;28.04;44.43;101591.53;5013840;28;20093;-60
2022/07/19 08:32:41;;;;;;;24.45;14.85;;;;;;;28.21;43.81;101595.56;5013713;28;20055;-60
2022/07/19 08:35:08;;;;;;;23.88;15.10;;;;;;;28.30;42.55;101595.94;5013501;28;20032;-60
2022/07/19 08:37:34;;;;;;;23.42;14.40;;;;;;;28.33;40.35;101594.31;4995982;28;20038;-60
2022/07/19 08:39:59;;;;;;;22.88;14.27;;;;;;;28.38;40.89;101599.56;5013768;28;20045;-60
2022/07/19 08:42:25;;;;;;;22.35;13.60;;;;;;;28.52;41.42;101592.22;5013735;28;20034;-60
2022/07/19 08:44:52;;;;;;;22.70;13.10;;;;;;;28.67;41.24;101592.97;5013455;28;20026;-59
2022/07/19 08:47:19;;;;;;;22.73;14.30;;;;;;;28.84;40.46;101594.94;5013692;28;20034;-60
2022/07/19 08:49:45;;;;;;;23.92;13.45;;;;;;;28.99;40.52;101587.09;5013421;28;20018;-60
2022/07/19 08:52:11;;;;;;;22.33;13.73;;;;;;;29.05;39.84;101585.44;5013503;28;20053;-60
2022/07/19 08:54:37;;;;;;;22.23;12.18;;;;;;;29.19;40.87;101581.66;5013316;28;20478;-60
2022/07/19 08:59:47;;;;;;;20.40;11.45;;;;;;;29.47;39.23;101571.28;5013829;28;20453;-60
2022/07/19 09:02:12;;;;;;;21.27;11.57;;;;;;;29.62;39.38;101580.53;5013788;28;20057;-59
2022/07/19 09:04:38;;;;;;;21.55;11.82;;;;;;;29.70;38.79;101570.66;5014102;28;20029;-60
2022/07/19 09:07:03;;;;;;;23.13;11.90;;;;;;;29.78;38.64;101570.59;5013059;28;20343;-60
2022/07/19 09:09:30;;;;;;;20.70;11.35;;;;;;;29.88;38.66;101566.81;5013133;28;20474;-60
2022/07/19 09:11:58;;;;;;;23.15;11.38;;;;;;;30.07;38.49;101564.59;5013319;28;20049;-60
2022/07/19 09:14:25;;;;;;;20.85;11.70;;;;;;;30.17;38.83;101567.34;5013132;28;20030;-60
2022/07/19 09:16:55;;;;;;;21.13;11.07;;;;;;;30.38;39.86;101565.44;5012970;28;20074;-60
2022/07/19 09:19:22;;;;;;;22.70;11.57;;;;;;;30.43;37.69;101559.28;5013072;28;20445;-60
2022/07/19 09:21:56;;;;;;;23.00;11.32;;;;;;;30.61;37.92;101561.09;5012587;28;20049;-59
2022/07/19 09:24:23;;;;;;;20.25;11.43;;;;;;;30.64;37.79;101557.41;5012843;28;20033;-59
2022/07/19 09:27:01;;;;;;;24.65;11.10;;;;;;;30.74;37.46;101561.31;5012659;28;20061;-60
2022/07/19 09:29:27;;;;;;;23.88;14.35;;;;;;;30.79;36.96;101560.88;5012541;28;20109;-59
2022/07/19 09:32:05;;;;;;;21.15;10.90;;;;;;;30.90;37.88;101552.91;5012392;28;20018;-60
2022/07/19 09:34:33;;;;;;;19.20;11.60;;;;;;;30.89;36.42;101557.00;5012763;28;20018;-60
2022/07/19 09:37:08;;;;;;;20.67;11.82;;;;;;;30.87;36.87;101553.81;5012990;28;20116;-60
2022/07/19 09:39:33;;;;;;;22.42;10.63;;;;;;;31.08;37.40;101546.94;5012345;28;20478;-59
2022/07/19 09:41:59;;;;;;;21.80;10.80;;;;;;;31.21;37.07;101547.16;5012269;28;20022;-59
2022/07/19 09:44:24;;;;;;;20.30;11.00;;;;;;;31.23;36.06;101555.28;5012267;28;20026;-59
2022/07/19 09:46:50;;;;;;;21.25;10.77;;;;;;;31.39;36.64;101546.88;5012465;28;20025;-59
2022/07/19 09:49:17;;;;;;;20.15;12.05;;;;;;;31.50;35.62;101540.94;5012793;28;20022;-60
2022/07/19 09:51:45;;;;;;;21.42;10.93;;;;;;;31.64;35.71;101536.22;5012651;28;20092;-59
2022/07/19 09:54:14;;;;;;;22.15;10.15;;;;;;;31.74;34.83;101547.47;5012465;28;20160;-59
2022/07/19 09:56:41;;;;;;;20.38;10.25;;;;;;;31.82;35.15;101539.56;5012591;28;20032;-59
2022/07/19 09:59:07;;;;;;;22.52;10.48;;;;;;;31.80;34.88;101544.91;5011928;28;20033;-59
2022/07/19 10:01:33;;;;;;;21.95;11.10;;;;;;;31.85;34.47;101544.41;5012049;28;20033;-59
2022/07/19 10:04:12;;;;;;;21.50;10.90;;;;;;;31.98;34.95;101550.28;5011829;28;20026;-59
2022/07/19 10:06:39;;;;;;;22.25;11.50;;;;;;;32.08;33.68;101541.91;5011824;28;20033;-59
2022/07/19 10:09:07;;;;;;;20.25;10.93;;;;;;;32.15;34.20;101548.31;5011880;28;20037;-59
2022/07/19 10:11:33;;;;;;;21.52;11.25;;;;;;;32.31;34.67;101543.91;5012100;28;20040;-60
2022/07/19 10:13:59;;;;;;;22.05;10.77;;;;;;;32.32;32.61;101549.22;5012252;28;20198;-59
2022/07/19 10:16:30;;;;;;;20.38;10.35;;;;;;;32.29;34.09;101541.50;5012262;28;20053;-59
2022/07/19 10:19:03;;;;;;;21.90;10.90;;;;;;;32.50;33.70;101536.56;5009851;28;20145;-61
2022/07/19 10:21:30;;;;;;;20.60;10.75;;;;;;;32.60;33.61;101540.41;5011902;28;20129;-60
2022/07/19 10:23:55;;;;;;;19.20;10.85;;;;;;;32.80;31.91;101531.81;5011901;28;20044;-59
2022/07/19 10:26:40;;;;;;;22.33;10.70;;;;;;;33.03;33.62;101530.03;4994102;28;20454;-60
2022/07/19 10:29:08;;;;;;;23.42;10.77;;;;;;;33.07;32.05;101522.94;5011787;28;20109;-60
2022/07/19 10:31:35;;;;;;;19.98;10.55;;;;;;;33.09;32.44;101528.25;5011272;28;20129;-60
2022/07/19 10:34:09;;;;;;;22.20;10.60;;;;;;;33.15;31.51;101531.38;5011771;28;20037;-59
2022/07/19 10:36:35;;;;;;;19.33;10.77;;;;;;;33.24;31.21;101526.63;5011558;28;20465;-59
2022/07/19 10:39:19;;;;;;;21.05;10.60;;;;;;;33.41;31.86;101520.88;4993861;28;20031;-60
2022/07/19 10:42:03;;;;;;;20.58;11.00;;;;;;;33.62;31.98;101515.84;5011531;28;20034;-60
2022/07/19 10:44:30;;;;;;;21.48;10.75;;;;;;;33.74;30.51;101515.09;5011637;28;20387;-60
2022/07/19 10:46:55;;;;;;;20.23;10.90;;;;;;;33.84;29.76;101511.13;5011509;28;20381;-60
2022/07/19 10:49:44;;;;;;;19.88;10.25;;;;;;;33.94;30.48;101506.34;5011798;28;20100;-59
2022/07/19 10:52:33;;;;;;;20.27;10.70;;;;;;;34.11;30.65;101506.25;4993668;28;20040;-60
2022/07/19 10:55:27;;;;;;;21.63;10.38;;;;;;;34.30;31.16;101495.84;5011725;28;20080;-60
2022/07/19 10:58:08;;;;;;;18.52;10.85;;;;;;;34.47;29.76;101494.53;5012150;28;20090;-60
2022/07/19 11:00:45;;;;;;;20.73;11.27;;;;;;;34.53;28.76;101498.41;5011827;28;20034;-60
2022/07/19 11:03:22;;;;;;;21.05;10.70;;;;;;;34.59;29.14;101497.88;4993751;28;20343;-60
2022/07/19 11:05:59;;;;;;;20.10;9.98;;;;;;;34.71;27.96;101494.19;5011126;28;20029;-59
2022/07/19 11:08:40;;;;;;;18.75;10.65;;;;;;;34.73;28.51;101493.72;5011670;28;20033;-61